createdAt,value
2018-11-03T00:02:22.981Z,97118.81
2018-11-03T00:04:51.278Z,97114.52
2018-11-03T00:07:19.585Z,97120.63
2018-11-03T00:09:47.957Z,97120.00
2018-11-03T00:12:16.334Z,97124.78
2018-11-03T00:14:44.697Z,97123.46
2018-11-03T00:17:13.091Z,97133.39
2018-11-03T00:19:41.397Z,97140.17
2018-11-03T00:22:09.860Z,97138.62
2018-11-03T00:24:38.206Z,97136.28
2018-11-03T00:27:06.586Z,97142.03
2018-11-03T00:29:34.984Z,97124.40
2018-11-03T00:32:03.389Z,97122.45
2018-11-03T00:34:32.076Z,97124.95
2018-11-03T00:37:00.378Z,97118.34
2018-11-03T00:39:28.942Z,97122.31
2018-11-03T00:41:57.273Z,97123.00
2018-11-03T00:44:25.637Z,97120.35
2018-11-03T00:46:54.082Z,97120.69
2018-11-03T00:49:22.392Z,97123.82
2018-11-03T00:51:50.990Z,97120.13
2018-11-03T00:54:19.683Z,97125.42
2018-11-03T00:56:47.973Z,97125.42
2018-11-03T00:59:17.070Z,97126.73
2018-11-03T01:01:45.509Z,97127.92
2018-11-03T01:04:14.101Z,97132.38
2018-11-03T01:06:42.486Z,97135.16
2018-11-03T01:09:10.902Z,97125.09
2018-11-03T01:11:39.548Z,97118.48
2018-11-03T01:14:07.842Z,97122.91
2018-11-03T01:16:36.186Z,97124.53
2018-11-03T01:19:04.575Z,97134.69
2018-11-03T01:21:33.028Z,97130.86
2018-11-03T01:24:01.378Z,97130.86
2018-11-03T01:26:29.677Z,97139.77
2018-11-03T01:28:58.110Z,97128.22
2018-11-03T01:31:26.793Z,97133.23
2018-11-03T01:33:55.550Z,97139.20
2018-11-03T01:36:23.909Z,97147.19
2018-11-03T01:38:52.266Z,97147.05
2018-11-03T01:41:20.537Z,97153.65
2018-11-03T01:43:48.875Z,97161.94
2018-11-03T01:46:18.103Z,97151.20
2018-11-03T01:48:46.406Z,97153.71
2018-11-03T01:51:14.708Z,97150.93
2018-11-03T01:53:43.244Z,97153.08
2018-11-03T01:56:11.542Z,97149.47
2018-11-03T01:58:39.849Z,97145.84
2018-11-03T02:01:08.166Z,97134.80
2018-11-03T02:03:36.714Z,97136.13
2018-11-03T02:06:05.214Z,97137.91
2018-11-03T02:08:33.543Z,97144.05
2018-11-03T02:11:01.927Z,97145.02
2018-11-03T02:13:30.226Z,97135.91
2018-11-03T02:15:58.574Z,97134.58
2018-11-03T02:18:29.897Z,97135.41
2018-11-03T02:20:58.222Z,97127.20
2018-11-03T02:23:26.547Z,97125.25
2018-11-03T02:25:55.585Z,97125.61
2018-11-03T02:28:23.878Z,97124.12
2018-11-03T02:30:52.315Z,97127.13
2018-11-03T02:33:20.725Z,97119.05
2018-11-03T02:35:49.175Z,97124.20
2018-11-03T02:38:17.480Z,97115.78
2018-11-03T02:40:45.783Z,97115.56
2018-11-03T02:43:14.162Z,97119.05
2018-11-03T02:45:42.534Z,97122.66
2018-11-03T02:48:10.939Z,97121.84
2018-11-03T02:50:39.282Z,97113.55
2018-11-03T02:53:07.686Z,97119.69
2018-11-03T02:55:36.034Z,97120.52
2018-11-03T02:58:04.351Z,97118.38
2018-11-03T03:00:32.766Z,97113.91
2018-11-03T03:03:01.163Z,97108.12
2018-11-03T03:05:29.540Z,97102.52
2018-11-03T03:07:59.035Z,97107.16
2018-11-03T03:10:27.438Z,97103.53
2018-11-03T03:12:55.728Z,97096.92
2018-11-03T03:15:24.089Z,97091.50
2018-11-03T03:17:52.394Z,97087.03
2018-11-03T03:20:20.778Z,97091.36
2018-11-03T03:22:49.165Z,97083.30
2018-11-03T03:25:17.600Z,97088.22
2018-11-03T03:27:45.876Z,97090.37
2018-11-03T03:30:14.290Z,97083.08
2018-11-03T03:32:42.651Z,97074.68
2018-11-03T03:35:11.522Z,97076.97
2018-11-03T03:37:39.936Z,97079.11
2018-11-03T03:40:09.290Z,97087.03
2018-11-03T03:42:37.666Z,97087.53
2018-11-03T03:45:07.406Z,97080.10
2018-11-03T03:47:35.802Z,97083.24
2018-11-03T03:50:04.232Z,97084.20
2018-11-03T03:52:32.554Z,97083.24
2018-11-03T03:55:00.908Z,97082.75
2018-11-03T03:57:29.296Z,97080.60
2018-11-03T03:59:57.754Z,97086.71
2018-11-03T04:02:26.058Z,97094.97
2018-11-03T04:04:54.438Z,97097.28
2018-11-03T04:07:22.978Z,97098.05
2018-11-03T04:09:51.317Z,97097.64
2018-11-03T04:12:19.598Z,97099.14
2018-11-03T04:14:47.994Z,97101.06
2018-11-03T04:17:16.374Z,97091.63
2018-11-03T04:19:44.711Z,97093.77
2018-11-03T04:22:13.091Z,97093.44
2018-11-03T04:24:41.467Z,97089.48
2018-11-03T04:27:09.750Z,97087.66
2018-11-03T04:29:38.148Z,97085.70
2018-11-03T04:32:06.497Z,97084.11
2018-11-03T04:34:34.959Z,97082.29
2018-11-03T04:37:03.506Z,97080.00
2018-11-03T04:39:31.802Z,97082.48
2018-11-03T04:42:00.114Z,97087.30
2018-11-03T04:44:34.889Z,97088.13
2018-11-03T04:47:03.230Z,97088.45
2018-11-03T04:49:31.502Z,97086.16
2018-11-03T04:51:59.830Z,97088.67
2018-11-03T04:54:28.214Z,97085.53
2018-11-03T04:56:57.058Z,97088.30
2018-11-03T04:59:25.441Z,97086.16
2018-11-03T05:01:53.906Z,97086.44
2018-11-03T05:04:22.216Z,97085.56
2018-11-03T05:06:50.614Z,97082.56
2018-11-03T05:09:19.248Z,97081.96
2018-11-03T05:11:47.710Z,97087.24
2018-11-03T05:14:16.410Z,97084.11
2018-11-03T05:16:44.704Z,97086.88
2018-11-03T05:19:13.054Z,97087.80
2018-11-03T05:21:42.234Z,97088.10
2018-11-03T05:24:10.642Z,97084.91
2018-11-03T05:26:39.003Z,97090.69
2018-11-03T05:29:07.453Z,97101.89
2018-11-03T05:31:35.726Z,97105.85
2018-11-03T05:34:04.070Z,97108.19
2018-11-03T05:36:32.465Z,97105.27
2018-11-03T05:39:00.855Z,97113.89
2018-11-03T05:41:29.109Z,97115.53
2018-11-03T05:43:57.463Z,97107.47
2018-11-03T05:46:25.809Z,97103.02
2018-11-03T05:48:54.494Z,97099.27
2018-11-03T05:51:22.822Z,97096.13
2018-11-03T05:53:51.200Z,97099.14
2018-11-03T05:56:19.542Z,97098.14
2018-11-03T05:58:47.912Z,97101.14
2018-11-03T06:01:16.243Z,97102.80
2018-11-03T06:03:44.530Z,97108.44
2018-11-03T06:06:12.980Z,97119.47
2018-11-03T06:08:41.321Z,97118.09
2018-11-03T06:11:09.714Z,97124.02
2018-11-03T06:13:38.122Z,97130.42
2018-11-03T06:16:06.582Z,97137.03
2018-11-03T06:18:35.474Z,97134.39
2018-11-03T06:21:03.901Z,97137.99
2018-11-03T06:23:32.221Z,97144.91
2018-11-03T06:26:00.493Z,97155.33
2018-11-03T06:28:28.819Z,97158.99
2018-11-03T06:30:57.160Z,97175.34
2018-11-03T06:33:25.689Z,97170.06
2018-11-03T06:35:54.149Z,97167.41
2018-11-03T06:38:22.793Z,97170.39
2018-11-03T06:40:51.479Z,97171.94
2018-11-03T06:43:20.353Z,97165.33
2018-11-03T06:45:48.941Z,97164.33
2018-11-03T06:48:17.254Z,97165.87
2018-11-03T06:50:45.629Z,97162.94
2018-11-03T06:53:14.381Z,97168.77
2018-11-03T06:55:42.693Z,97172.59
2018-11-03T06:58:11.235Z,97172.92
2018-11-03T07:00:39.533Z,97179.70
2018-11-03T07:03:07.832Z,97180.66
2018-11-03T07:05:36.317Z,97180.30
2018-11-03T07:08:04.678Z,97179.48
2018-11-03T07:10:32.983Z,97169.27
2018-11-03T07:13:01.673Z,97175.11
2018-11-03T07:15:29.917Z,97173.84
2018-11-03T07:17:58.205Z,97174.22
2018-11-03T07:20:26.502Z,97172.63
2018-11-03T07:22:54.792Z,97172.95
2018-11-03T07:25:23.093Z,97187.03
2018-11-03T07:27:52.321Z,97183.70
2018-11-03T07:30:20.641Z,97178.41
2018-11-03T07:32:48.938Z,97169.34
2018-11-03T07:35:17.302Z,97182.92
2018-11-03T07:37:45.625Z,97177.77
2018-11-03T07:40:14.087Z,97173.50
2018-11-03T07:42:42.720Z,97178.16
2018-11-03T07:45:11.824Z,97180.16
2018-11-03T07:47:40.219Z,97178.92
2018-11-03T07:50:11.115Z,97180.13
2018-11-03T07:52:39.571Z,97175.89
2018-11-03T07:55:09.947Z,97178.25
2018-11-03T07:57:38.363Z,97173.66
2018-11-03T08:00:08.519Z,97177.31
2018-11-03T08:02:36.979Z,97180.13
2018-11-03T08:05:06.379Z,97181.72
2018-11-03T08:07:34.960Z,97188.78
2018-11-03T08:10:03.405Z,97181.13
2018-11-03T08:12:31.722Z,97184.81
2018-11-03T08:15:00.063Z,97181.72
2018-11-03T08:17:28.393Z,97172.66
2018-11-03T08:19:56.713Z,97168.73
2018-11-03T08:22:25.291Z,97177.58
2018-11-03T08:24:53.611Z,97180.27
2018-11-03T08:27:21.953Z,97181.03
2018-11-03T08:29:50.237Z,97182.59
2018-11-03T08:32:18.515Z,97182.66
2018-11-03T08:34:46.892Z,97184.03
2018-11-03T08:37:15.335Z,97188.23
2018-11-03T08:39:43.816Z,97184.16
2018-11-03T08:42:12.114Z,97177.59
2018-11-03T08:44:40.453Z,97173.33
2018-11-03T08:47:08.836Z,97173.87
2018-11-03T08:49:37.241Z,97172.91
2018-11-03T08:52:06.105Z,97166.83
2018-11-03T08:54:34.489Z,97165.55
2018-11-03T08:57:02.902Z,97168.73
2018-11-03T08:59:31.328Z,97162.65
2018-11-03T09:01:59.793Z,97162.36
2018-11-03T09:04:28.139Z,97155.27
2018-11-03T09:06:56.587Z,97156.13
2018-11-03T09:09:24.841Z,97157.67
2018-11-03T09:11:53.293Z,97156.70
2018-11-03T09:14:21.746Z,97157.23
2018-11-03T09:16:50.079Z,97154.62
2018-11-03T09:19:18.517Z,97160.95
2018-11-03T09:21:46.884Z,97154.86
2018-11-03T09:24:15.213Z,97152.23
2018-11-03T09:26:43.750Z,97158.56
2018-11-03T09:29:12.178Z,97162.59
2018-11-03T09:31:40.761Z,97165.95
2018-11-03T09:34:09.181Z,97161.50
2018-11-03T09:36:37.531Z,97162.03
2018-11-03T09:39:08.673Z,97160.70
2018-11-03T09:41:37.307Z,97159.23
2018-11-03T09:44:05.758Z,97157.75
2018-11-03T09:46:34.385Z,97158.61
2018-11-03T09:49:02.697Z,97163.61
2018-11-03T09:51:31.105Z,97156.15
2018-11-03T09:53:59.525Z,97158.86
2018-11-03T09:56:27.902Z,97164.83
2018-11-03T09:58:56.189Z,97160.67
2018-11-03T10:01:24.665Z,97149.62
2018-11-03T10:03:53.237Z,97152.14
2018-11-03T10:06:21.609Z,97148.72
2018-11-03T10:08:49.935Z,97148.06
2018-11-03T10:11:18.497Z,97138.13
2018-11-03T10:13:46.882Z,97141.63
2018-11-03T10:16:15.361Z,97142.64
2018-11-03T10:18:43.985Z,97140.16
2018-11-03T10:21:12.329Z,97127.22
2018-11-03T10:23:40.713Z,97120.94
2018-11-03T10:26:09.193Z,97123.08
2018-11-03T10:28:37.569Z,97127.93
2018-11-03T10:31:06.028Z,97128.92
2018-11-03T10:33:34.466Z,97125.14
2018-11-03T10:36:02.903Z,97126.63
2018-11-03T10:38:32.072Z,97113.53
2018-11-03T10:41:00.702Z,97119.66
2018-11-03T10:43:51.714Z,97118.84
2018-11-03T10:46:22.421Z,97123.86
2018-11-03T10:48:52.007Z,97121.37
2018-11-03T10:51:20.418Z,97117.08
2018-11-03T10:53:48.901Z,97115.08
2018-11-03T10:56:17.211Z,97109.42
2018-11-03T10:58:45.566Z,97107.80
2018-11-03T11:01:19.209Z,97106.16
2018-11-03T11:03:52.894Z,97098.20
2018-11-03T11:06:26.606Z,97101.03
2018-11-03T11:09:00.272Z,97096.54
2018-11-03T11:11:44.232Z,97093.22
2018-11-03T11:14:12.656Z,97097.55
2018-11-03T11:16:40.955Z,97099.55
2018-11-03T11:19:09.525Z,97098.72
2018-11-03T11:21:37.925Z,97096.73
2018-11-03T11:24:06.538Z,97095.56
2018-11-03T11:26:34.733Z,97087.76
2018-11-03T11:29:03.240Z,97089.94
2018-11-03T11:31:31.702Z,97090.10
2018-11-03T11:33:59.911Z,97085.96
2018-11-03T11:36:28.308Z,97084.95
2018-11-03T11:38:56.727Z,97082.99
2018-11-03T11:41:25.044Z,97077.68
2018-11-03T11:43:53.327Z,97083.15
2018-11-03T11:46:21.659Z,97084.48
2018-11-03T11:48:49.990Z,97088.30
2018-11-03T11:51:18.450Z,97088.97
2018-11-03T11:53:46.866Z,97080.81
2018-11-03T11:56:15.214Z,97073.03
2018-11-03T11:58:43.599Z,97074.02
2018-11-03T12:01:11.931Z,97070.34
2018-11-03T12:03:40.250Z,97056.41
2018-11-03T12:06:08.526Z,97057.06
2018-11-03T12:08:36.834Z,97054.09
2018-11-03T12:11:05.279Z,97051.44
2018-11-03T12:13:33.551Z,97054.78
2018-11-03T12:16:02.033Z,97054.77
2018-11-03T12:18:30.263Z,97056.25
2018-11-03T12:20:58.582Z,97047.97
2018-11-03T12:23:26.926Z,97047.61
2018-11-03T12:25:55.213Z,97047.80
2018-11-03T12:28:23.506Z,97043.46
2018-11-03T12:30:51.843Z,97039.15
2018-11-03T12:33:20.137Z,97032.66
2018-11-03T12:35:48.459Z,97029.17
2018-11-03T12:38:23.130Z,97029.48
2018-11-03T12:40:51.759Z,97018.86
2018-11-03T12:43:20.141Z,97014.22
2018-11-03T12:45:48.543Z,97007.59
2018-11-03T12:48:17.084Z,97015.41
2018-11-03T12:50:45.382Z,97012.41
2018-11-03T12:53:13.801Z,97016.55
2018-11-03T12:55:42.137Z,97011.74
2018-11-03T12:58:10.522Z,97004.28
2018-11-03T13:00:38.946Z,97001.62
2018-11-03T13:03:07.337Z,97000.61
2018-11-03T13:05:35.657Z,96998.95
2018-11-03T13:08:04.138Z,97003.44
2018-11-03T13:10:32.532Z,97004.25
2018-11-03T13:13:00.882Z,96999.28
2018-11-03T13:15:29.301Z,96998.61
2018-11-03T13:17:57.655Z,96999.12
2018-11-03T13:20:25.957Z,97001.75
2018-11-03T13:22:54.639Z,96996.29
2018-11-03T13:25:22.913Z,96998.45
2018-11-03T13:27:51.280Z,96995.98
2018-11-03T13:30:19.665Z,96991.98
2018-11-03T13:32:48.212Z,96996.63
2018-11-03T13:35:16.506Z,96996.31
2018-11-03T13:37:44.922Z,97005.62
2018-11-03T13:40:14.218Z,97002.30
2018-11-03T13:42:43.313Z,96999.80
2018-11-03T13:45:12.000Z,97001.66
2018-11-03T13:47:40.671Z,96996.00
2018-11-03T13:50:11.454Z,96998.66
2018-11-03T13:52:40.381Z,96989.02
2018-11-03T13:55:09.250Z,96988.70
2018-11-03T13:57:37.534Z,96979.06
2018-11-03T14:00:07.006Z,96980.73
2018-11-03T14:02:35.605Z,96983.39
2018-11-03T14:05:04.142Z,96982.06
2018-11-03T14:07:32.522Z,96979.72
2018-11-03T14:10:00.861Z,96985.70
2018-11-03T14:12:29.322Z,96976.25
2018-11-03T14:14:57.737Z,96985.88
2018-11-03T14:17:26.110Z,96988.21
2018-11-03T14:19:54.484Z,96985.72
2018-11-03T14:22:22.942Z,96986.70
2018-11-03T14:24:51.444Z,96985.72
2018-11-03T14:27:19.915Z,96985.37
2018-11-03T14:29:48.318Z,96983.37
2018-11-03T14:32:16.705Z,96977.91
2018-11-03T14:34:45.102Z,96976.75
2018-11-03T14:37:14.578Z,96965.81
2018-11-03T14:39:42.938Z,96970.78
2018-11-03T14:42:11.398Z,96971.44
2018-11-03T14:44:39.888Z,96970.46
2018-11-03T14:47:08.332Z,96968.47
2018-11-03T14:49:36.794Z,96966.48
2018-11-03T14:52:05.842Z,96962.66
2018-11-03T14:54:34.255Z,96953.84
2018-11-03T14:57:02.714Z,96950.53
2018-11-03T14:59:31.122Z,96951.55
2018-11-03T15:01:59.594Z,96951.70
2018-11-03T15:04:28.001Z,96951.20
2018-11-03T15:06:56.483Z,96945.58
2018-11-03T15:09:24.895Z,96942.58
2018-11-03T15:11:53.445Z,96935.63
2018-11-03T15:14:22.199Z,96931.30
2018-11-03T15:16:50.475Z,96934.96
2018-11-03T15:19:18.960Z,96928.33
2018-11-03T15:21:47.537Z,96928.64
2018-11-03T15:24:15.918Z,96925.98
2018-11-03T15:26:44.490Z,96927.81
2018-11-03T15:29:12.918Z,96923.02
2018-11-03T15:31:41.418Z,96923.34
2018-11-03T15:34:09.851Z,96920.37
2018-11-03T15:36:38.310Z,96933.30
2018-11-03T15:39:07.027Z,96924.16
2018-11-03T15:41:35.387Z,96926.16
2018-11-03T15:44:03.754Z,96922.99
2018-11-03T15:46:38.819Z,96921.67
2018-11-03T15:49:07.366Z,96918.86
2018-11-03T15:51:35.961Z,96923.00
2018-11-03T15:54:04.354Z,96923.66
2018-11-03T15:56:32.846Z,96931.63
2018-11-03T15:59:01.377Z,96928.81
2018-11-03T16:01:29.835Z,96936.27
2018-11-03T16:03:58.195Z,96939.08
2018-11-03T16:06:26.806Z,96930.64
2018-11-03T16:08:55.197Z,96929.64
2018-11-03T16:11:23.697Z,96929.64
2018-11-03T16:13:52.269Z,96928.81
2018-11-03T16:16:20.573Z,96928.16
2018-11-03T16:18:48.968Z,96924.33
2018-11-03T16:21:17.324Z,96927.80
2018-11-03T16:23:45.697Z,96927.48
2018-11-03T16:26:14.310Z,96927.30
2018-11-03T16:28:42.876Z,96925.31
2018-11-03T16:31:11.219Z,96924.84
2018-11-03T16:33:39.726Z,96920.86
2018-11-03T16:36:08.105Z,96907.75
2018-11-03T16:38:36.634Z,96919.19
2018-11-03T16:41:04.940Z,96920.51
2018-11-03T16:43:33.344Z,96925.50
2018-11-03T16:46:01.736Z,96920.00
2018-11-03T16:48:30.369Z,96918.84
2018-11-03T16:50:58.718Z,96913.21
2018-11-03T16:53:27.144Z,96915.05
2018-11-03T16:55:55.638Z,96914.03
2018-11-03T16:58:24.189Z,96907.25
2018-11-03T17:00:52.582Z,96909.55
2018-11-03T17:03:21.030Z,96911.73
2018-11-03T17:05:49.355Z,96907.05
2018-11-03T17:08:17.734Z,96902.25
2018-11-03T17:10:46.158Z,96907.56
2018-11-03T17:13:14.519Z,96901.94
2018-11-03T17:15:42.862Z,96907.41
2018-11-03T17:18:11.302Z,96905.41
2018-11-03T17:20:39.658Z,96903.27
2018-11-03T17:23:08.039Z,96902.09
2018-11-03T17:25:36.527Z,96903.07
2018-11-03T17:28:05.206Z,96901.43
2018-11-03T17:30:33.854Z,96902.41
2018-11-03T17:33:02.282Z,96904.08
2018-11-03T17:35:30.739Z,96898.44
2018-11-03T17:37:59.194Z,96898.44
2018-11-03T17:40:27.796Z,96902.76
2018-11-03T17:42:56.290Z,96893.13
2018-11-03T17:45:24.646Z,96893.80
2018-11-03T17:47:53.200Z,96897.77
2018-11-03T17:50:21.766Z,96897.77
2018-11-03T17:52:50.110Z,96893.80
2018-11-03T17:55:18.790Z,96890.63
2018-11-03T17:57:47.163Z,96884.51
2018-11-03T18:00:16.895Z,96882.87
2018-11-03T18:02:46.182Z,96881.86
2018-11-03T18:05:15.228Z,96877.88
2018-11-03T18:07:43.662Z,96874.06
2018-11-03T18:10:12.916Z,96875.23
2018-11-03T18:12:41.807Z,96876.36
2018-11-03T18:15:10.748Z,96869.26
2018-11-03T18:17:39.096Z,96866.23
2018-11-03T18:20:08.526Z,96856.63
2018-11-03T18:22:37.008Z,96863.10
2018-11-03T18:25:06.238Z,96859.79
2018-11-03T18:27:34.776Z,96868.87
2018-11-03T18:30:03.304Z,96875.89
2018-11-03T18:32:31.859Z,96875.89
2018-11-03T18:35:00.273Z,96874.19
2018-11-03T18:37:28.559Z,96871.22
2018-11-03T18:39:56.922Z,96866.89
2018-11-03T18:42:25.235Z,96872.54
2018-11-03T18:44:53.698Z,96873.20
2018-11-03T18:47:22.165Z,96867.91
2018-11-03T18:49:50.665Z,96864.42
2018-11-03T18:52:19.048Z,96864.58
2018-11-03T18:54:47.525Z,96867.55
2018-11-03T18:57:15.918Z,96869.23
2018-11-03T18:59:44.284Z,96863.92
2018-11-03T19:02:12.741Z,96853.63
2018-11-03T19:04:41.138Z,96857.10
2018-11-03T19:07:09.542Z,96857.10
2018-11-03T19:09:38.271Z,96860.26
2018-11-03T19:12:07.185Z,96845.02
2018-11-03T19:14:35.975Z,96839.71
2018-11-03T19:17:04.643Z,96837.06
2018-11-03T19:19:33.041Z,96849.81
2018-11-03T19:22:01.455Z,96850.16
2018-11-03T19:24:29.973Z,96852.30
2018-11-03T19:26:58.554Z,96845.20
2018-11-03T19:29:27.246Z,96839.05
2018-11-03T19:31:55.741Z,96839.55
2018-11-03T19:34:24.155Z,96846.19
2018-11-03T19:36:52.551Z,96842.20
2018-11-03T19:39:21.029Z,96842.20
2018-11-03T19:41:49.537Z,96842.55
2018-11-03T19:44:17.956Z,96828.79
2018-11-03T19:46:46.438Z,96834.91
2018-11-03T19:49:14.760Z,96842.36
2018-11-03T19:51:43.192Z,96836.08
2018-11-03T19:54:11.526Z,96832.27
2018-11-03T19:56:39.863Z,96826.14
2018-11-03T19:59:08.339Z,96827.97
2018-11-03T20:01:36.768Z,96833.75
2018-11-03T20:04:05.678Z,96831.25
2018-11-03T20:06:34.099Z,96835.42
2018-11-03T20:09:02.563Z,96829.77
2018-11-03T20:11:30.841Z,96830.27
2018-11-03T20:13:59.229Z,96831.41
2018-11-03T20:16:27.490Z,96836.39
2018-11-03T20:18:55.799Z,96834.72
2018-11-03T20:21:24.271Z,96826.30
2018-11-03T20:23:52.807Z,96821.15
2018-11-03T20:26:22.184Z,96824.77
2018-11-03T20:28:50.525Z,96829.58
2018-11-03T20:31:18.977Z,96827.77
2018-11-03T20:33:47.399Z,96822.95
2018-11-03T20:36:16.084Z,96821.97
2018-11-03T20:38:44.433Z,96827.59
2018-11-03T20:41:12.751Z,96824.46
2018-11-03T20:43:41.088Z,96820.30
2018-11-03T20:46:09.492Z,96824.12
2018-11-03T20:48:37.843Z,96815.84
2018-11-03T20:51:11.147Z,96810.52
2018-11-03T20:53:40.064Z,96813.16
2018-11-03T20:56:09.110Z,96814.99
2018-11-03T20:58:37.427Z,96804.73
2018-11-03T21:01:06.339Z,96817.83
2018-11-03T21:03:34.755Z,96819.16
2018-11-03T21:06:03.227Z,96816.83
2018-11-03T21:08:31.525Z,96816.67
2018-11-03T21:11:00.030Z,96823.95
2018-11-03T21:13:28.546Z,96813.01
2018-11-03T21:15:57.059Z,96814.33
2018-11-03T21:18:25.703Z,96802.41
2018-11-03T21:20:54.123Z,96800.61
2018-11-03T21:23:22.702Z,96804.08
2018-11-03T21:25:51.021Z,96800.10
2018-11-03T21:28:21.134Z,96798.27
2018-11-03T21:30:49.473Z,96790.01
2018-11-03T21:33:17.894Z,96796.12
2018-11-03T21:35:46.194Z,96794.80
2018-11-03T21:38:14.701Z,96794.30
2018-11-03T21:40:42.958Z,96788.17
2018-11-03T21:43:11.324Z,96787.17
2018-11-03T21:45:39.660Z,96790.16
2018-11-03T21:48:08.326Z,96781.39
2018-11-03T21:50:36.874Z,96779.06
2018-11-03T21:53:05.638Z,96774.42
2018-11-03T21:55:34.183Z,96774.42
2018-11-03T21:58:02.539Z,96771.11
2018-11-03T22:00:30.970Z,96763.16
2018-11-03T22:02:59.419Z,96763.00
2018-11-03T22:05:27.755Z,96763.81
2018-11-03T22:07:56.116Z,96757.35
2018-11-03T22:10:24.482Z,96755.87
2018-11-03T22:12:52.823Z,96757.70
2018-11-03T22:15:21.155Z,96759.34
2018-11-03T22:17:49.607Z,96752.72
2018-11-03T22:20:18.094Z,96747.57
2018-11-03T22:22:46.478Z,96749.91
2018-11-03T22:25:14.792Z,96753.22
2018-11-03T22:27:43.282Z,96756.69
2018-11-03T22:30:12.203Z,96754.04
2018-11-03T22:32:40.849Z,96743.95
2018-11-03T22:35:09.335Z,96742.46
2018-11-03T22:37:37.662Z,96743.59
2018-11-03T22:40:06.918Z,96742.94
2018-11-03T22:42:35.283Z,96734.33
2018-11-03T22:45:03.608Z,96734.83
2018-11-03T22:47:31.902Z,96734.83
2018-11-03T22:50:00.427Z,96724.23
2018-11-03T22:52:28.704Z,96723.38
2018-11-03T22:54:57.006Z,96725.37
2018-11-03T22:57:25.362Z,96726.53
2018-11-03T22:59:53.688Z,96727.70
2018-11-03T23:02:21.974Z,96725.72
2018-11-03T23:04:50.373Z,96723.89
2018-11-03T23:07:18.722Z,96720.41
2018-11-03T23:09:47.206Z,96713.79
2018-11-03T23:12:15.618Z,96715.94
2018-11-03T23:14:43.969Z,96711.14
2018-11-03T23:17:12.314Z,96704.02
2018-11-03T23:19:40.834Z,96703.54
2018-11-03T23:22:09.240Z,96709.81
2018-11-03T23:24:37.659Z,96704.86
2018-11-03T23:27:06.126Z,96701.70
2018-11-03T23:29:34.536Z,96696.91
2018-11-03T23:32:03.058Z,96695.25
2018-11-03T23:34:31.447Z,96690.11
2018-11-03T23:36:59.783Z,96693.26
2018-11-03T23:39:28.243Z,96684.48
2018-11-03T23:41:56.670Z,96674.40
2018-11-03T23:44:25.025Z,96675.72
2018-11-03T23:46:53.406Z,96669.57
2018-11-03T23:49:21.916Z,96667.94
2018-11-03T23:51:50.200Z,96668.75
2018-11-03T23:54:18.615Z,96664.27
2018-11-03T23:56:46.935Z,96667.27
2018-11-03T23:59:15.345Z,96671.06
